sensor_id;sensor_type;location;lat;lon;timestamp;pressure;altitude;pressure_sealevel;temperature;humidity
69689;BME280;56932;38.402;-96.176;2022-12-07T00:01:13;97633.88;;;22.60;22.94
69689;BME280;56932;38.402;-96.176;2022-12-07T00:03:37;97639.29;;;22.84;23.59
69689;BME280;56932;38.402;-96.176;2022-12-07T00:06:03;97644.82;;;22.27;23.94
69689;BME280;56932;38.402;-96.176;2022-12-07T00:08:28;97646.13;;;22.50;24.08
69689;BME280;56932;38.402;-96.176;2022-12-07T00:10:53;97647.08;;;22.80;24.04
69689;BME280;56932;38.402;-96.176;2022-12-07T00:13:18;97648.45;;;22.83;24.41
69689;BME280;56932;38.402;-96.176;2022-12-07T00:15:44;97656.12;;;22.66;24.73
69689;BME280;56932;38.402;-96.176;2022-12-07T00:18:09;97659.93;;;22.98;25.41
69689;BME280;56932;38.402;-96.176;2022-12-07T00:20:35;97657.76;;;23.03;25.24
69689;BME280;56932;38.402;-96.176;2022-12-07T00:23:01;97657.75;;;22.33;26.38
69689;BME280;56932;38.402;-96.176;2022-12-07T00:25:26;97659.45;;;22.25;26.70
69689;BME280;56932;38.402;-96.176;2022-12-07T00:27:53;97663.77;;;22.69;25.96
69689;BME280;56932;38.402;-96.176;2022-12-07T00:30:17;97666.63;;;22.91;25.16
69689;BME280;56932;38.402;-96.176;2022-12-07T00:32:43;97669.14;;;22.09;25.01
69689;BME280;56932;38.402;-96.176;2022-12-07T00:35:08;97678.20;;;23.06;24.10
69689;BME280;56932;38.402;-96.176;2022-12-07T00:37:34;97682.93;;;22.33;24.06
69689;BME280;56932;38.402;-96.176;2022-12-07T00:39:59;97683.68;;;22.61;23.74
69689;BME280;56932;38.402;-96.176;2022-12-07T00:42:25;97685.65;;;22.70;23.39
69689;BME280;56932;38.402;-96.176;2022-12-07T00:44:50;97687.78;;;21.37;24.24
69689;BME280;56932;38.402;-96.176;2022-12-07T00:47:16;97695.11;;;22.01;23.56
69689;BME280;56932;38.402;-96.176;2022-12-07T00:49:41;97692.74;;;22.61;22.87
69689;BME280;56932;38.402;-96.176;2022-12-07T00:52:07;97695.85;;;22.60;22.92
69689;BME280;56932;38.402;-96.176;2022-12-07T00:54:32;97702.85;;;22.32;22.89
69689;BME280;56932;38.402;-96.176;2022-12-07T00:56:58;97706.11;;;21.54;23.69
69689;BME280;56932;38.402;-96.176;2022-12-07T00:59:23;97717.43;;;22.05;23.17
69689;BME280;56932;38.402;-96.176;2022-12-07T01:01:49;97718.44;;;22.19;22.90
69689;BME280;56932;38.402;-96.176;2022-12-07T01:04:14;97719.99;;;21.63;23.08
69689;BME280;56932;38.402;-96.176;2022-12-07T01:06:40;97726.19;;;22.66;22.30
69689;BME280;56932;38.402;-96.176;2022-12-07T01:09:05;97732.32;;;22.70;22.15
69689;BME280;56932;38.402;-96.176;2022-12-07T01:11:31;97729.26;;;22.32;22.33
69689;BME280;56932;38.402;-96.176;2022-12-07T01:13:58;97733.55;;;22.45;22.06
69689;BME280;56932;38.402;-96.176;2022-12-07T01:16:24;97737.37;;;22.37;21.85
69689;BME280;56932;38.402;-96.176;2022-12-07T01:18:49;97735.62;;;22.01;22.20
69689;BME280;56932;38.402;-96.176;2022-12-07T01:21:15;97733.41;;;21.60;22.49
69689;BME280;56932;38.402;-96.176;2022-12-07T01:23:39;97735.92;;;22.00;21.79
69689;BME280;56932;38.402;-96.176;2022-12-07T01:26:07;97744.40;;;22.13;21.79
69689;BME280;56932;38.402;-96.176;2022-12-07T01:28:30;97750.96;;;21.85;21.94
69689;BME280;56932;38.402;-96.176;2022-12-07T01:30:58;97751.44;;;22.47;21.81
69689;BME280;56932;38.402;-96.176;2022-12-07T01:33:21;97752.08;;;22.44;21.56
69689;BME280;56932;38.402;-96.176;2022-12-07T01:35:46;97755.69;;;21.99;21.83
69689;BME280;56932;38.402;-96.176;2022-12-07T01:38:11;97761.39;;;21.69;22.01
69689;BME280;56932;38.402;-96.176;2022-12-07T01:40:37;97764.49;;;21.74;21.75
69689;BME280;56932;38.402;-96.176;2022-12-07T01:43:04;97766.79;;;21.84;21.81
69689;BME280;56932;38.402;-96.176;2022-12-07T01:45:37;97771.08;;;22.27;21.38
69689;BME280;56932;38.402;-96.176;2022-12-07T01:47:55;97770.15;;;22.01;21.53
69689;BME280;56932;38.402;-96.176;2022-12-07T01:50:19;97771.15;;;21.85;21.63
69689;BME280;56932;38.402;-96.176;2022-12-07T01:52:47;97776.03;;;22.31;21.20
69689;BME280;56932;38.402;-96.176;2022-12-07T01:55:12;97777.55;;;21.50;21.79
69689;BME280;56932;38.402;-96.176;2022-12-07T01:57:39;97779.57;;;21.69;21.61
69689;BME280;56932;38.402;-96.176;2022-12-07T02:00:02;97777.88;;;21.72;21.50
69689;BME280;56932;38.402;-96.176;2022-12-07T02:02:29;97772.85;;;22.59;20.81
69689;BME280;56932;38.402;-96.176;2022-12-07T02:04:53;97769.60;;;22.17;21.04
69689;BME280;56932;38.402;-96.176;2022-12-07T02:07:18;97774.04;;;21.35;21.60
69689;BME280;56932;38.402;-96.176;2022-12-07T02:09:43;97778.67;;;21.69;21.28
69689;BME280;56932;38.402;-96.176;2022-12-07T02:12:08;97784.39;;;21.58;21.34
69689;BME280;56932;38.402;-96.176;2022-12-07T02:14:34;97785.63;;;21.38;21.25
69689;BME280;56932;38.402;-96.176;2022-12-07T02:17:08;97786.69;;;21.75;21.10
69689;BME280;56932;38.402;-96.176;2022-12-07T02:21:53;97793.03;;;21.64;21.12
69689;BME280;56932;38.402;-96.176;2022-12-07T02:26:53;97794.55;;;21.55;21.14
69689;BME280;56932;38.402;-96.176;2022-12-07T02:29:16;97789.45;;;21.44;21.22
69689;BME280;56932;38.402;-96.176;2022-12-07T02:31:32;97786.97;;;21.80;20.92
69689;BME280;56932;38.402;-96.176;2022-12-07T02:34:04;97784.04;;;22.13;20.89
69689;BME280;56932;38.402;-96.176;2022-12-07T02:36:28;97790.98;;;21.75;20.87
69689;BME280;56932;38.402;-96.176;2022-12-07T02:38:55;97796.07;;;21.06;21.26
69689;BME280;56932;38.402;-96.176;2022-12-07T02:41:18;97792.25;;;21.60;21.13
69689;BME280;56932;38.402;-96.176;2022-12-07T02:43:42;97797.23;;;21.13;21.07
69689;BME280;56932;38.402;-96.176;2022-12-07T02:46:07;97811.85;;;21.25;21.37
69689;BME280;56932;38.402;-96.176;2022-12-07T02:48:32;97809.40;;;21.31;21.07
69689;BME280;56932;38.402;-96.176;2022-12-07T02:50:56;97813.86;;;20.90;21.60
69689;BME280;56932;38.402;-96.176;2022-12-07T02:53:30;97815.21;;;21.00;21.67
69689;BME280;56932;38.402;-96.176;2022-12-07T02:55:47;97818.14;;;21.06;21.46
69689;BME280;56932;38.402;-96.176;2022-12-07T02:58:22;97817.61;;;20.89;21.52
69689;BME280;56932;38.402;-96.176;2022-12-07T03:00:46;97824.86;;;20.12;21.91
69689;BME280;56932;38.402;-96.176;2022-12-07T03:03:07;97826.72;;;20.52;21.78
69689;BME280;56932;38.402;-96.176;2022-12-07T03:05:41;97829.97;;;20.65;21.65
69689;BME280;56932;38.402;-96.176;2022-12-07T03:08:02;97823.63;;;20.45;21.83
69689;BME280;56932;38.402;-96.176;2022-12-07T03:10:24;97827.49;;;20.38;21.84
69689;BME280;56932;38.402;-96.176;2022-12-07T03:12:53;97836.63;;;20.27;21.97
69689;BME280;56932;38.402;-96.176;2022-12-07T03:15:16;97836.53;;;20.72;21.74
69689;BME280;56932;38.402;-96.176;2022-12-07T03:17:40;97842.63;;;20.23;21.91
69689;BME280;56932;38.402;-96.176;2022-12-07T03:20:05;97848.62;;;20.35;21.81
69689;BME280;56932;38.402;-96.176;2022-12-07T03:22:30;97847.07;;;20.44;22.05
69689;BME280;56932;38.402;-96.176;2022-12-07T03:24:57;97848.95;;;20.15;21.87
69689;BME280;56932;38.402;-96.176;2022-12-07T03:27:22;97857.12;;;19.68;22.25
69689;BME280;56932;38.402;-96.176;2022-12-07T03:29:47;97861.31;;;20.04;21.93
69689;BME280;56932;38.402;-96.176;2022-12-07T03:32:14;97856.41;;;19.88;22.04
69689;BME280;56932;38.402;-96.176;2022-12-07T03:34:40;97856.55;;;19.79;22.08
69689;BME280;56932;38.402;-96.176;2022-12-07T03:37:04;97864.18;;;19.68;22.15
69689;BME280;56932;38.402;-96.176;2022-12-07T03:39:30;97872.21;;;20.17;21.75
69689;BME280;56932;38.402;-96.176;2022-12-07T03:41:53;97875.38;;;20.52;21.63
69689;BME280;56932;38.402;-96.176;2022-12-07T03:44:18;97872.82;;;19.67;22.11
69689;BME280;56932;38.402;-96.176;2022-12-07T03:46:48;97869.30;;;19.79;22.15
69689;BME280;56932;38.402;-96.176;2022-12-07T03:49:14;97868.16;;;20.01;21.98
69689;BME280;56932;38.402;-96.176;2022-12-07T03:51:40;97877.17;;;19.89;21.94
69689;BME280;56932;38.402;-96.176;2022-12-07T03:54:05;97884.96;;;20.43;21.74
69689;BME280;56932;38.402;-96.176;2022-12-07T03:56:28;97887.52;;;20.10;21.98
69689;BME280;56932;38.402;-96.176;2022-12-07T03:58:52;97888.58;;;19.97;22.08
69689;BME280;56932;38.402;-96.176;2022-12-07T04:01:18;97886.48;;;20.06;22.07
69689;BME280;56932;38.402;-96.176;2022-12-07T04:03:43;97882.36;;;19.78;22.19
69689;BME280;56932;38.402;-96.176;2022-12-07T04:06:08;97885.04;;;19.86;21.97
69689;BME280;56932;38.402;-96.176;2022-12-07T04:08:33;97890.18;;;19.14;22.13
69689;BME280;56932;38.402;-96.176;2022-12-07T04:10:59;97890.62;;;19.33;22.34
69689;BME280;56932;38.402;-96.176;2022-12-07T04:13:24;97889.14;;;19.80;22.14
69689;BME280;56932;38.402;-96.176;2022-12-07T04:15:50;97888.67;;;19.82;22.09
69689;BME280;56932;38.402;-96.176;2022-12-07T04:18:15;97889.37;;;19.69;22.01
69689;BME280;56932;38.402;-96.176;2022-12-07T04:20:41;97893.89;;;19.69;21.95
69689;BME280;56932;38.402;-96.176;2022-12-07T04:23:06;97895.63;;;19.64;22.15
69689;BME280;56932;38.402;-96.176;2022-12-07T04:25:32;97890.50;;;19.28;22.11
69689;BME280;56932;38.402;-96.176;2022-12-07T04:27:57;97893.82;;;19.37;22.08
69689;BME280;56932;38.402;-96.176;2022-12-07T04:30:23;97897.62;;;19.67;22.13
69689;BME280;56932;38.402;-96.176;2022-12-07T04:32:49;97898.90;;;19.65;22.14
69689;BME280;56932;38.402;-96.176;2022-12-07T04:35:15;97894.26;;;19.76;22.22
69689;BME280;56932;38.402;-96.176;2022-12-07T04:37:39;97884.22;;;19.44;22.21
69689;BME280;56932;38.402;-96.176;2022-12-07T04:40:08;97882.91;;;19.43;22.22
69689;BME280;56932;38.402;-96.176;2022-12-07T04:42:31;97884.31;;;19.36;22.31
69689;BME280;56932;38.402;-96.176;2022-12-07T04:44:56;97887.43;;;19.68;22.18
69689;BME280;56932;38.402;-96.176;2022-12-07T04:47:22;97886.09;;;19.54;22.06
69689;BME280;56932;38.402;-96.176;2022-12-07T04:49:47;97887.40;;;19.39;22.15
69689;BME280;56932;38.402;-96.176;2022-12-07T04:52:13;97895.38;;;19.49;22.09
69689;BME280;56932;38.402;-96.176;2022-12-07T04:54:38;97900.77;;;19.37;22.15
69689;BME280;56932;38.402;-96.176;2022-12-07T04:57:03;97904.79;;;19.54;22.27
69689;BME280;56932;38.402;-96.176;2022-12-07T04:59:29;97908.80;;;19.37;22.14
69689;BME280;56932;38.402;-96.176;2022-12-07T05:01:54;97905.02;;;19.00;22.42
69689;BME280;56932;38.402;-96.176;2022-12-07T05:04:20;97913.42;;;19.14;22.26
69689;BME280;56932;38.402;-96.176;2022-12-07T05:06:45;97924.31;;;19.20;22.44
69689;BME280;56932;38.402;-96.176;2022-12-07T05:09:11;97925.63;;;19.28;22.33
69689;BME280;56932;38.402;-96.176;2022-12-07T05:11:36;97924.98;;;18.97;22.35
69689;BME280;56932;38.402;-96.176;2022-12-07T05:14:02;97930.90;;;19.17;22.18
69689;BME280;56932;38.402;-96.176;2022-12-07T05:16:27;97937.17;;;19.31;22.23
69689;BME280;56932;38.402;-96.176;2022-12-07T05:18:52;97945.46;;;19.85;21.98
69689;BME280;56932;38.402;-96.176;2022-12-07T05:21:18;97958.76;;;18.98;22.27
69689;BME280;56932;38.402;-96.176;2022-12-07T05:23:44;97969.91;;;19.16;22.13
69689;BME280;56932;38.402;-96.176;2022-12-07T05:26:09;97970.50;;;19.02;22.20
69689;BME280;56932;38.402;-96.176;2022-12-07T05:28:34;97969.73;;;18.72;22.30
69689;BME280;56932;38.402;-96.176;2022-12-07T05:31:00;97964.25;;;19.32;22.15
69689;BME280;56932;38.402;-96.176;2022-12-07T05:33:25;97965.54;;;18.88;22.30
69689;BME280;56932;38.402;-96.176;2022-12-07T05:35:51;97968.71;;;19.11;22.31
69689;BME280;56932;38.402;-96.176;2022-12-07T05:38:16;97978.32;;;18.92;22.24
69689;BME280;56932;38.402;-96.176;2022-12-07T05:40:42;97979.02;;;18.89;22.29
69689;BME280;56932;38.402;-96.176;2022-12-07T05:43:07;97979.59;;;19.17;22.43
69689;BME280;56932;38.402;-96.176;2022-12-07T05:45:33;97974.76;;;18.69;22.26
69689;BME280;56932;38.402;-96.176;2022-12-07T05:47:59;97974.77;;;18.87;22.29
69689;BME280;56932;38.402;-96.176;2022-12-07T05:50:24;97974.65;;;19.20;22.23
69689;BME280;56932;38.402;-96.176;2022-12-07T05:52:49;97974.74;;;18.70;22.41
69689;BME280;56932;38.402;-96.176;2022-12-07T05:55:15;97972.34;;;18.50;22.57
69689;BME280;56932;38.402;-96.176;2022-12-07T05:57:41;97972.14;;;19.33;22.13
69689;BME280;56932;38.402;-96.176;2022-12-07T06:00:07;97972.01;;;19.14;22.42
69689;BME280;56932;38.402;-96.176;2022-12-07T06:02:32;97969.98;;;18.88;22.20
69689;BME280;56932;38.402;-96.176;2022-12-07T06:04:57;97965.12;;;18.95;22.36
69689;BME280;56932;38.402;-96.176;2022-12-07T06:07:22;97954.09;;;19.22;22.31
69689;BME280;56932;38.402;-96.176;2022-12-07T06:09:48;97955.83;;;18.78;22.48
69689;BME280;56932;38.402;-96.176;2022-12-07T06:12:13;97958.58;;;19.05;22.43
69689;BME280;56932;38.402;-96.176;2022-12-07T06:14:38;97956.21;;;18.90;22.34
69689;BME280;56932;38.402;-96.176;2022-12-07T06:17:04;97957.30;;;18.87;22.34
69689;BME280;56932;38.402;-96.176;2022-12-07T06:19:30;97957.20;;;19.26;22.30
69689;BME280;56932;38.402;-96.176;2022-12-07T06:21:55;97951.18;;;18.80;22.28
69689;BME280;56932;38.402;-96.176;2022-12-07T06:24:20;97941.53;;;18.50;22.75
69689;BME280;56932;38.402;-96.176;2022-12-07T06:26:46;97934.37;;;18.24;22.81
69689;BME280;56932;38.402;-96.176;2022-12-07T06:29:12;97929.88;;;18.98;22.17
69689;BME280;56932;38.402;-96.176;2022-12-07T06:31:37;97932.08;;;17.77;23.24
69689;BME280;56932;38.402;-96.176;2022-12-07T06:34:04;97927.82;;;18.64;22.53
69689;BME280;56932;38.402;-96.176;2022-12-07T06:36:29;97925.25;;;17.82;23.70
69689;BME280;56932;38.402;-96.176;2022-12-07T06:38:53;97927.02;;;17.69;23.96
69689;BME280;56932;38.402;-96.176;2022-12-07T06:41:19;97927.52;;;17.12;24.58
69689;BME280;56932;38.402;-96.176;2022-12-07T06:43:44;97924.97;;;17.33;24.75
69689;BME280;56932;38.402;-96.176;2022-12-07T06:46:10;97922.32;;;17.53;24.45
69689;BME280;56932;38.402;-96.176;2022-12-07T06:48:35;97916.98;;;17.40;24.63
69689;BME280;56932;38.402;-96.176;2022-12-07T06:51:01;97921.98;;;17.93;24.49
69689;BME280;56932;38.402;-96.176;2022-12-07T06:53:26;97933.49;;;17.83;24.43
69689;BME280;56932;38.402;-96.176;2022-12-07T06:55:52;97938.14;;;17.82;24.54
69689;BME280;56932;38.402;-96.176;2022-12-07T06:58:18;97938.65;;;18.08;24.38
69689;BME280;56932;38.402;-96.176;2022-12-07T07:00:44;97935.51;;;18.28;24.08
69689;BME280;56932;38.402;-96.176;2022-12-07T07:03:09;97937.79;;;18.25;23.92
69689;BME280;56932;38.402;-96.176;2022-12-07T07:05:34;97935.86;;;17.76;24.46
69689;BME280;56932;38.402;-96.176;2022-12-07T07:08:00;97935.15;;;18.29;24.27
69689;BME280;56932;38.402;-96.176;2022-12-07T07:10:25;97939.85;;;18.23;24.56
69689;BME280;56932;38.402;-96.176;2022-12-07T07:12:51;97938.95;;;18.73;23.92
69689;BME280;56932;38.402;-96.176;2022-12-07T07:15:17;97942.01;;;18.47;23.93
69689;BME280;56932;38.402;-96.176;2022-12-07T07:17:42;97941.58;;;18.22;24.23
69689;BME280;56932;38.402;-96.176;2022-12-07T07:20:08;97944.29;;;19.01;23.60
69689;BME280;56932;38.402;-96.176;2022-12-07T07:22:33;97944.37;;;18.27;24.10
69689;BME280;56932;38.402;-96.176;2022-12-07T07:24:59;97946.42;;;18.09;24.21
69689;BME280;56932;38.402;-96.176;2022-12-07T07:27:24;97946.50;;;18.85;23.77
69689;BME280;56932;38.402;-96.176;2022-12-07T07:29:50;97948.01;;;17.95;24.61
69689;BME280;56932;38.402;-96.176;2022-12-07T07:32:15;97953.65;;;19.80;22.81
69689;BME280;56932;38.402;-96.176;2022-12-07T07:34:41;97955.42;;;18.78;23.84
69689;BME280;56932;38.402;-96.176;2022-12-07T07:37:06;97967.47;;;19.26;23.43
69689;BME280;56932;38.402;-96.176;2022-12-07T07:39:31;97971.62;;;19.38;22.98
69689;BME280;56932;38.402;-96.176;2022-12-07T07:41:57;97977.36;;;19.27;22.99
69689;BME280;56932;38.402;-96.176;2022-12-07T07:44:23;97983.90;;;19.37;22.96
69689;BME280;56932;38.402;-96.176;2022-12-07T07:46:48;97983.06;;;18.84;23.38
69689;BME280;56932;38.402;-96.176;2022-12-07T07:49:14;97983.71;;;20.37;22.12
69689;BME280;56932;38.402;-96.176;2022-12-07T07:51:39;97983.32;;;19.56;22.59
69689;BME280;56932;38.402;-96.176;2022-12-07T07:54:05;97984.86;;;20.19;22.28
69689;BME280;56932;38.402;-96.176;2022-12-07T07:56:31;97995.09;;;21.17;21.46
69689;BME280;56932;38.402;-96.176;2022-12-07T07:58:56;98002.58;;;21.21;21.42
69689;BME280;56932;38.402;-96.176;2022-12-07T08:01:21;98001.04;;;19.58;22.50
69689;BME280;56932;38.402;-96.176;2022-12-07T08:03:47;98000.15;;;21.12;21.24
69689;BME280;56932;38.402;-96.176;2022-12-07T08:06:12;97997.28;;;19.99;22.34
69689;BME280;56932;38.402;-96.176;2022-12-07T08:08:38;98000.84;;;20.05;21.91
69689;BME280;56932;38.402;-96.176;2022-12-07T08:11:05;98007.89;;;20.75;21.50
69689;BME280;56932;38.402;-96.176;2022-12-07T08:13:29;98007.36;;;20.84;21.42
69689;BME280;56932;38.402;-96.176;2022-12-07T08:15:55;98005.40;;;20.64;21.78
69689;BME280;56932;38.402;-96.176;2022-12-07T08:18:20;98009.48;;;20.10;22.01
69689;BME280;56932;38.402;-96.176;2022-12-07T08:20:46;98015.08;;;20.81;21.67
69689;BME280;56932;38.402;-96.176;2022-12-07T08:23:12;98023.34;;;21.09;21.42
69689;BME280;56932;38.402;-96.176;2022-12-07T08:25:38;98027.61;;;20.07;21.81
69689;BME280;56932;38.402;-96.176;2022-12-07T08:28:03;98025.86;;;20.82;21.61
69689;BME280;56932;38.402;-96.176;2022-12-07T08:30:28;98033.56;;;20.77;21.43
69689;BME280;56932;38.402;-96.176;2022-12-07T08:32:54;98031.34;;;20.53;21.81
69689;BME280;56932;38.402;-96.176;2022-12-07T08:35:19;98034.39;;;20.76;21.42
69689;BME280;56932;38.402;-96.176;2022-12-07T08:37:45;98037.65;;;21.18;21.28
69689;BME280;56932;38.402;-96.176;2022-12-07T08:40:12;98034.39;;;20.68;21.63
69689;BME280;56932;38.402;-96.176;2022-12-07T08:42:35;98040.57;;;20.44;21.62
69689;BME280;56932;38.402;-96.176;2022-12-07T08:45:01;98047.63;;;20.56;21.73
69689;BME280;56932;38.402;-96.176;2022-12-07T08:47:27;98049.14;;;20.66;21.63
69689;BME280;56932;38.402;-96.176;2022-12-07T08:49:53;98051.54;;;20.51;21.73
69689;BME280;56932;38.402;-96.176;2022-12-07T08:52:18;98055.52;;;20.54;21.70
69689;BME280;56932;38.402;-96.176;2022-12-07T08:54:43;98050.94;;;20.36;21.83
69689;BME280;56932;38.402;-96.176;2022-12-07T08:57:09;98054.33;;;20.37;21.81
69689;BME280;56932;38.402;-96.176;2022-12-07T08:59:35;98057.87;;;20.02;21.83
69689;BME280;56932;38.402;-96.176;2022-12-07T09:02:00;98060.60;;;20.19;21.69
69689;BME280;56932;38.402;-96.176;2022-12-07T09:04:25;98057.31;;;20.49;21.72
69689;BME280;56932;38.402;-96.176;2022-12-07T09:06:50;98065.22;;;20.44;21.69
69689;BME280;56932;38.402;-96.176;2022-12-07T09:09:16;98068.71;;;20.37;21.72
69689;BME280;56932;38.402;-96.176;2022-12-07T09:11:41;98079.03;;;20.47;21.65
69689;BME280;56932;38.402;-96.176;2022-12-07T09:14:07;98083.89;;;20.52;21.56
69689;BME280;56932;38.402;-96.176;2022-12-07T09:16:32;98081.94;;;20.20;21.83
69689;BME280;56932;38.402;-96.176;2022-12-07T09:18:58;98085.91;;;20.44;21.64
69689;BME280;56932;38.402;-96.176;2022-12-07T09:21:23;98087.15;;;20.90;21.44
69689;BME280;56932;38.402;-96.176;2022-12-07T09:23:48;98088.94;;;20.35;21.70
69689;BME280;56932;38.402;-96.176;2022-12-07T09:26:14;98097.24;;;20.13;21.85
69689;BME280;56932;38.402;-96.176;2022-12-07T09:28:40;98098.44;;;20.08;21.87
69689;BME280;56932;38.402;-96.176;2022-12-07T09:31:06;98102.03;;;20.17;21.82
69689;BME280;56932;38.402;-96.176;2022-12-07T09:33:31;98102.54;;;20.02;21.89
69689;BME280;56932;38.402;-96.176;2022-12-07T09:35:56;98105.61;;;20.10;21.82
69689;BME280;56932;38.402;-96.176;2022-12-07T09:38:22;98103.74;;;20.16;21.79
69689;BME280;56932;38.402;-96.176;2022-12-07T09:40:47;98103.12;;;20.00;21.91
69689;BME280;56932;38.402;-96.176;2022-12-07T09:43:14;98103.46;;;20.05;21.84
69689;BME280;56932;38.402;-96.176;2022-12-07T09:45:39;98108.17;;;19.96;21.95
69689;BME280;56932;38.402;-96.176;2022-12-07T09:48:05;98102.22;;;19.98;21.89
69689;BME280;56932;38.402;-96.176;2022-12-07T09:50:30;98096.47;;;20.29;21.80
69689;BME280;56932;38.402;-96.176;2022-12-07T09:53:01;98090.39;;;20.00;21.86
69689;BME280;56932;38.402;-96.176;2022-12-07T09:55:25;98081.03;;;19.74;22.07
69689;BME280;56932;38.402;-96.176;2022-12-07T09:57:46;98078.34;;;19.81;21.99
69689;BME280;56932;38.402;-96.176;2022-12-07T10:00:15;98070.15;;;20.25;21.80
69689;BME280;56932;38.402;-96.176;2022-12-07T10:02:39;98068.41;;;19.43;22.31
69689;BME280;56932;38.402;-96.176;2022-12-07T10:05:04;98067.08;;;19.20;22.81
69689;BME280;56932;38.402;-96.176;2022-12-07T10:07:28;98071.49;;;19.96;22.01
69689;BME280;56932;38.402;-96.176;2022-12-07T10:09:54;98074.30;;;19.67;22.04
69689;BME280;56932;38.402;-96.176;2022-12-07T10:12:19;98072.19;;;19.82;22.10
69689;BME280;56932;38.402;-96.176;2022-12-07T10:14:53;98074.96;;;20.13;22.00
69689;BME280;56932;38.402;-96.176;2022-12-07T10:19:36;98077.67;;;20.07;21.70
69689;BME280;56932;38.402;-96.176;2022-12-07T10:22:09;98084.05;;;19.98;22.09
69689;BME280;56932;38.402;-96.176;2022-12-07T10:24:27;98081.94;;;19.48;22.11
69689;BME280;56932;38.402;-96.176;2022-12-07T10:26:54;98078.74;;;19.89;22.13
69689;BME280;56932;38.402;-96.176;2022-12-07T10:29:22;98076.20;;;19.96;22.06
69689;BME280;56932;38.402;-96.176;2022-12-07T10:31:45;98077.98;;;19.77;22.05
69689;BME280;56932;38.402;-96.176;2022-12-07T10:34:20;98078.52;;;19.28;22.28
69689;BME280;56932;38.402;-96.176;2022-12-07T10:36:37;98080.02;;;19.00;22.48
69689;BME280;56932;38.402;-96.176;2022-12-07T10:39:03;98083.34;;;19.09;22.60
69689;BME280;56932;38.402;-96.176;2022-12-07T10:41:26;98086.49;;;19.88;22.25
69689;BME280;56932;38.402;-96.176;2022-12-07T10:43:54;98088.81;;;20.21;21.82
69689;BME280;56932;38.402;-96.176;2022-12-07T10:46:26;98087.03;;;19.96;22.06
69689;BME280;56932;38.402;-96.176;2022-12-07T10:48:50;98082.94;;;19.41;22.53
69689;BME280;56932;38.402;-96.176;2022-12-07T10:51:12;98086.01;;;19.44;22.29
69689;BME280;56932;38.402;-96.176;2022-12-07T10:53:44;98091.96;;;19.10;22.37
69689;BME280;56932;38.402;-96.176;2022-12-07T10:56:09;98089.57;;;19.29;22.40
69689;BME280;56932;38.402;-96.176;2022-12-07T10:58:37;98095.50;;;19.57;22.19
69689;BME280;56932;38.402;-96.176;2022-12-07T11:00:57;98097.46;;;19.49;22.37
69689;BME280;56932;38.402;-96.176;2022-12-07T11:03:28;98100.45;;;19.49;22.22
69689;BME280;56932;38.402;-96.176;2022-12-07T11:05:48;98097.48;;;19.73;22.16
69689;BME280;56932;38.402;-96.176;2022-12-07T11:08:15;98099.43;;;19.76;22.03
69689;BME280;56932;38.402;-96.176;2022-12-07T11:10:40;98095.39;;;19.22;22.29
69689;BME280;56932;38.402;-96.176;2022-12-07T11:15:29;98090.86;;;19.71;22.27
69689;BME280;56932;38.402;-96.176;2022-12-07T11:17:55;98092.47;;;19.40;22.54
69689;BME280;56932;38.402;-96.176;2022-12-07T11:20:27;98093.25;;;19.33;22.43
69689;BME280;56932;38.402;-96.176;2022-12-07T11:22:45;98099.65;;;19.67;22.33
69689;BME280;56932;38.402;-96.176;2022-12-07T11:25:15;98099.44;;;19.43;22.54
69689;BME280;56932;38.402;-96.176;2022-12-07T11:27:39;98097.83;;;19.19;22.51
69689;BME280;56932;38.402;-96.176;2022-12-07T11:30:08;98098.64;;;19.38;22.58
69689;BME280;56932;38.402;-96.176;2022-12-07T11:32:31;98108.49;;;19.16;22.56
69689;BME280;56932;38.402;-96.176;2022-12-07T11:34:57;98115.25;;;19.33;22.60
69689;BME280;56932;38.402;-96.176;2022-12-07T11:37:18;98116.98;;;19.53;22.41
69689;BME280;56932;38.402;-96.176;2022-12-07T11:39:44;98119.80;;;19.24;22.65
69689;BME280;56932;38.402;-96.176;2022-12-07T11:42:09;98124.55;;;19.38;22.53
69689;BME280;56932;38.402;-96.176;2022-12-07T11:44:36;98126.81;;;19.39;22.50
69689;BME280;56932;38.402;-96.176;2022-12-07T11:47:00;98128.67;;;19.02;22.80
69689;BME280;56932;38.402;-96.176;2022-12-07T11:49:27;98133.74;;;19.50;22.40
69689;BME280;56932;38.402;-96.176;2022-12-07T11:51:49;98129.59;;;19.32;22.52
69689;BME280;56932;38.402;-96.176;2022-12-07T11:54:15;98131.83;;;19.39;22.50
69689;BME280;56932;38.402;-96.176;2022-12-07T11:56:38;98128.34;;;19.22;22.64
69689;BME280;56932;38.402;-96.176;2022-12-07T11:59:09;98124.73;;;19.25;22.59
69689;BME280;56932;38.402;-96.176;2022-12-07T12:01:41;98119.58;;;19.06;22.69
69689;BME280;56932;38.402;-96.176;2022-12-07T12:04:00;98115.09;;;18.68;22.82
69689;BME280;56932;38.402;-96.176;2022-12-07T12:06:20;98123.23;;;19.45;22.34
69689;BME280;56932;38.402;-96.176;2022-12-07T12:08:48;98123.73;;;19.27;22.50
69689;BME280;56932;38.402;-96.176;2022-12-07T12:11:19;98124.84;;;19.11;22.66
69689;BME280;56932;38.402;-96.176;2022-12-07T12:13:49;98132.86;;;19.08;22.48
69689;BME280;56932;38.402;-96.176;2022-12-07T12:16:16;98134.93;;;19.33;22.48
69689;BME280;56932;38.402;-96.176;2022-12-07T12:18:39;98137.79;;;19.07;22.68
69689;BME280;56932;38.402;-96.176;2022-12-07T12:20:56;98146.04;;;19.18;22.67
69689;BME280;56932;38.402;-96.176;2022-12-07T12:23:22;98151.48;;;19.02;22.77
69689;BME280;56932;38.402;-96.176;2022-12-07T12:25:46;98158.83;;;19.16;22.71
69689;BME280;56932;38.402;-96.176;2022-12-07T12:28:20;98170.69;;;19.06;22.78
69689;BME280;56932;38.402;-96.176;2022-12-07T12:30:37;98178.48;;;19.19;22.68
69689;BME280;56932;38.402;-96.176;2022-12-07T12:33:05;98180.63;;;18.64;22.95
69689;BME280;56932;38.402;-96.176;2022-12-07T12:35:31;98177.99;;;19.78;22.56
69689;BME280;56932;38.402;-96.176;2022-12-07T12:37:53;98183.23;;;18.59;23.15
69689;BME280;56932;38.402;-96.176;2022-12-07T12:42:45;98193.99;;;18.91;22.86